createdAt,value
2022-12-09T00:01:58.667Z,96772.06
2022-12-09T00:06:06.909Z,96780.78
2022-12-09T00:10:11.376Z,96787.75
2022-12-09T00:14:14.811Z,96776.59
2022-12-09T00:18:19.976Z,96780.22
2022-12-09T00:22:23.602Z,96787.56
2022-12-09T00:26:27.827Z,96775.97
2022-12-09T00:30:31.727Z,96771.81
2022-12-09T00:34:36.780Z,96767.50
2022-12-09T00:38:40.902Z,96772.59
2022-12-09T00:42:44.760Z,96760.34
2022-12-09T00:46:48.425Z,96761.28
2022-12-09T00:50:53.490Z,96755.44
2022-12-09T00:54:56.682Z,96743.75
2022-12-09T00:59:01.317Z,96752.59
2022-12-09T01:03:05.299Z,96743.47
2022-12-09T01:07:11.866Z,96736.22
2022-12-09T01:11:18.789Z,96752.28
2022-12-09T01:15:22.093Z,96756.22
2022-12-09T01:19:25.781Z,96754.13
2022-12-09T01:23:30.997Z,96755.25
2022-12-09T01:27:34.467Z,96757.22
2022-12-09T01:31:38.137Z,96758.22
2022-12-09T01:35:42.889Z,96749.75
2022-12-09T01:39:48.221Z,96751.44
2022-12-09T01:44:14.361Z,96749.06
2022-12-09T01:48:20.997Z,96764.66
2022-12-09T01:52:25.695Z,96752.94
2022-12-09T01:56:33.545Z,96753.22
2022-12-09T02:00:37.100Z,96763.13
2022-12-09T02:04:46.440Z,96750.84
2022-12-09T02:08:51.831Z,96745.22
2022-12-09T02:13:06.444Z,96735.34
2022-12-09T02:17:25.420Z,96727.41
2022-12-09T02:21:38.184Z,96729.72
2022-12-09T02:25:45.871Z,96734.34
2022-12-09T02:30:07.016Z,96740.25
2022-12-09T02:34:19.119Z,96736.06
2022-12-09T02:38:24.588Z,96735.25
2022-12-09T02:42:32.955Z,96724.19
2022-12-09T02:46:38.352Z,96713.34
2022-12-09T02:50:45.717Z,96706.22
2022-12-09T02:54:49.579Z,96701.19
2022-12-09T02:58:53.454Z,96696.19
2022-12-09T03:02:59.664Z,96687.53
2022-12-09T03:07:20.781Z,96679.81
2022-12-09T03:11:26.722Z,96674.56
2022-12-09T03:15:35.600Z,96675.25
2022-12-09T03:19:44.717Z,96681.88
2022-12-09T03:23:54.385Z,96668.78
2022-12-09T03:28:02.130Z,96660.81
2022-12-09T03:32:06.349Z,96647.69
2022-12-09T03:36:15.541Z,96648.09
2022-12-09T03:40:26.219Z,96637.44
2022-12-09T03:44:39.360Z,96634.59
2022-12-09T03:48:42.849Z,96641.78
2022-12-09T03:52:51.052Z,96638.25
2022-12-09T03:56:59.423Z,96643.13
2022-12-09T04:01:04.218Z,96636.63
2022-12-09T04:05:09.444Z,96627.84
2022-12-09T04:09:13.307Z,96603.06
2022-12-09T04:13:18.601Z,96584.44
2022-12-09T04:17:21.892Z,96583.59
2022-12-09T04:21:25.551Z,96571.59
2022-12-09T04:25:29.188Z,96577.38
2022-12-09T04:29:34.238Z,96570.38
2022-12-09T04:33:38.098Z,96572.78
2022-12-09T04:37:41.962Z,96576.31
2022-12-09T04:41:45.848Z,96571.19
2022-12-09T04:45:51.708Z,96549.81
2022-12-09T04:49:55.059Z,96535.34
2022-12-09T04:54:01.174Z,96528.28
2022-12-09T04:58:04.545Z,96537.66
2022-12-09T11:56:43.852Z,96194.19
2022-12-09T12:00:53.874Z,96190.78
2022-12-09T12:05:03.317Z,96189.03
2022-12-09T12:09:14.872Z,96188.22
2022-12-09T12:13:24.609Z,96176.59
2022-12-09T12:17:35.536Z,96170.13
2022-12-09T12:21:52.784Z,96174.78
2022-12-09T12:26:04.735Z,96157.53
2022-12-09T12:30:11.321Z,96147.53
2022-12-09T12:34:25.538Z,96145.59
2022-12-09T12:38:48.149Z,96138.66
2022-12-09T12:43:21.423Z,96129.13
2022-12-09T12:47:32.120Z,96134.09
2022-12-09T12:51:48.444Z,96126.03
2022-12-09T12:56:01.120Z,96128.91
2022-12-09T13:00:11.780Z,96124.06
2022-12-09T13:04:24.000Z,96123.28
2022-12-09T13:08:35.574Z,96096.19
2022-12-09T13:12:59.068Z,96108.63
2022-12-09T13:17:07.169Z,96092.53
2022-12-09T13:21:13.416Z,96093.00
2022-12-09T13:25:23.225Z,96091.91
2022-12-09T13:29:37.500Z,96087.53
2022-12-09T13:33:52.352Z,96079.66
2022-12-09T13:38:01.290Z,96074.50
2022-12-09T13:42:22.582Z,96069.50
2022-12-09T13:46:29.266Z,96071.28
2022-12-09T13:50:38.797Z,96060.16
2022-12-09T13:54:49.858Z,96056.78
2022-12-09T13:59:17.746Z,96052.09
2022-12-09T14:03:28.862Z,96059.66
2022-12-09T14:07:37.472Z,96060.00
2022-12-09T14:11:50.355Z,96065.47
2022-12-09T14:16:20.141Z,96060.63
2022-12-09T14:20:25.689Z,96055.13
2022-12-09T14:24:36.862Z,96056.09
2022-12-09T14:28:57.535Z,96061.25
2022-12-09T14:33:02.921Z,96064.13
2022-12-09T14:37:31.100Z,96067.69
2022-12-09T14:41:40.172Z,96068.63
2022-12-09T14:45:50.337Z,96050.91
2022-12-09T14:49:55.657Z,96050.28
2022-12-09T14:54:01.970Z,96036.75
2022-12-09T14:58:07.075Z,96037.06
2022-12-09T15:02:22.296Z,96027.06
2022-12-09T15:06:28.155Z,96017.09
2022-12-09T15:15:08.194Z,96042.84
2022-12-09T15:19:51.075Z,96042.84
2022-12-09T15:23:47.298Z,96046.06
2022-12-09T15:27:59.422Z,96043.34
2022-12-09T15:32:03.604Z,96057.81
2022-12-09T15:36:11.832Z,96043.03
2022-12-09T15:40:18.817Z,96065.22
2022-12-09T15:44:25.625Z,96056.41
2022-12-09T15:53:09.786Z,96069.91
2022-12-09T15:57:18.325Z,96061.22
2022-12-09T16:01:25.440Z,96040.81
2022-12-09T16:05:29.304Z,96036.44
2022-12-09T16:09:34.804Z,96041.59
2022-12-09T16:13:39.563Z,96052.69
2022-12-09T16:17:55.063Z,96054.31
2022-12-09T16:22:00.743Z,96057.84
2022-12-09T16:26:07.761Z,96063.78
2022-12-09T16:30:16.196Z,96061.06
2022-12-09T16:34:26.363Z,96071.50
2022-12-09T16:38:30.888Z,96081.81
2022-12-09T16:42:40.721Z,96086.03
2022-12-09T16:46:45.700Z,96080.22
2022-12-09T16:50:52.493Z,96084.41
2022-12-09T16:54:55.796Z,96095.66
2022-12-09T16:59:01.223Z,96095.81
2022-12-09T17:03:11.054Z,96101.94
2022-12-09T17:07:14.569Z,96114.00
2022-12-09T17:11:18.931Z,96099.53
2022-12-09T17:15:24.102Z,96096.13
2022-12-09T17:19:27.887Z,96109.16
2022-12-09T17:23:36.134Z,96106.56
2022-12-09T17:27:43.101Z,96109.16
2022-12-09T17:31:49.872Z,96127.84
2022-12-09T17:35:54.177Z,96133.00
2022-12-09T17:40:06.459Z,96140.72
2022-12-09T17:44:10.762Z,96139.75
2022-12-09T17:48:15.973Z,96141.38
2022-12-09T17:52:19.266Z,96146.53
2022-12-09T17:56:24.618Z,96142.16
2022-12-09T18:00:28.269Z,96135.41
2022-12-09T18:04:34.000Z,96142.03
2022-12-09T18:08:38.931Z,96142.16
2022-12-09T18:12:42.398Z,96158.44
2022-12-09T18:16:46.849Z,96155.19
2022-12-09T18:20:54.628Z,96181.63
2022-12-09T18:24:57.839Z,96176.78
2022-12-09T18:29:01.779Z,96186.41
2022-12-09T18:33:05.920Z,96197.81
2022-12-09T18:37:14.411Z,96203.13
2022-12-09T18:41:19.647Z,96203.44
2022-12-09T18:45:24.037Z,96203.72
2022-12-09T18:49:29.302Z,96201.47
2022-12-09T18:53:33.874Z,96194.06
2022-12-09T18:57:38.817Z,96203.69
2022-12-09T19:01:44.041Z,96201.28
2022-12-09T19:05:47.982Z,96199.81
2022-12-09T19:09:53.009Z,96206.88
2022-12-09T19:14:00.742Z,96198.66
2022-12-09T19:18:04.996Z,96205.56
2022-12-09T19:22:08.347Z,96215.19
2022-12-09T19:26:18.917Z,96218.72
2022-12-09T19:30:22.759Z,96220.63
2022-12-09T19:34:27.706Z,96226.75
2022-12-09T19:38:32.761Z,96232.03
2022-12-09T19:42:40.022Z,96236.41
2022-12-09T19:46:44.427Z,96245.06
2022-12-09T19:50:48.642Z,96248.59
2022-12-09T19:54:52.468Z,96252.13
2022-12-09T19:58:58.081Z,96252.13
2022-12-09T20:03:01.701Z,96254.72
2022-12-09T20:07:08.177Z,96271.09
2022-12-09T20:11:14.624Z,96267.59
2022-12-09T20:15:20.231Z,96280.31
2022-12-09T20:19:23.838Z,96285.59
2022-12-09T20:23:28.177Z,96280.06
2022-12-09T20:27:31.554Z,96297.63
2022-12-09T20:31:38.607Z,96295.88
2022-12-09T20:35:41.831Z,96305.22
2022-12-09T20:39:46.088Z,96306.97
2022-12-09T20:43:56.247Z,96308.47
2022-12-09T20:48:01.762Z,96306.81
2022-12-09T20:52:05.572Z,96309.41
2022-12-09T20:56:10.723Z,96320.50
2022-12-09T21:00:19.667Z,96322.25
2022-12-09T21:04:28.031Z,96322.25
2022-12-09T21:08:32.186Z,96330.00
2022-12-09T21:12:41.076Z,96325.81
2022-12-09T21:16:51.676Z,96330.94
2022-12-09T21:20:59.581Z,96329.34
2022-12-09T21:25:02.944Z,96337.22
2022-12-09T21:29:07.378Z,96334.63
2022-12-09T21:33:11.120Z,96341.53
2022-12-09T21:37:15.727Z,96346.53
2022-12-09T21:41:22.228Z,96356.00
2022-12-09T21:45:26.775Z,96358.59
2022-12-09T21:49:34.040Z,96364.03
2022-12-09T21:53:39.404Z,96363.09
2022-12-09T21:57:43.383Z,96361.16
2022-12-09T22:01:47.612Z,96364.56
2022-12-09T22:05:55.171Z,96363.09
2022-12-09T22:10:03.245Z,96365.66
2022-12-09T22:14:10.049Z,96348.59
2022-12-09T22:18:14.062Z,96352.78
2022-12-09T22:22:17.569Z,96363.22
2022-12-09T22:26:22.990Z,96365.66
2022-12-09T22:30:26.399Z,96364.34
2022-12-09T22:34:29.479Z,96374.31
2022-12-09T22:38:33.032Z,96374.31
2022-12-09T22:42:38.109Z,96374.31
2022-12-09T22:46:42.685Z,96377.84
2022-12-09T22:50:45.831Z,96379.47
2022-12-09T22:54:49.386Z,96379.47
2022-12-09T22:58:54.918Z,96378.53
2022-12-09T23:02:58.293Z,96386.25
2022-12-09T23:07:01.966Z,96389.47
2022-12-09T23:11:07.502Z,96383.38
2022-12-09T23:15:12.506Z,96379.84
2022-12-09T23:19:15.916Z,96391.09
2022-12-09T23:23:19.408Z,96382.41
2022-12-09T23:27:23.124Z,96376.47
2022-12-09T23:31:32.573Z,96382.41
2022-12-09T23:35:38.946Z,96381.75
2022-12-09T23:39:45.755Z,96396.25
2022-12-09T23:43:51.085Z,96389.47
2022-12-09T23:47:55.880Z,96387.84
2022-12-09T23:51:59.440Z,96390.16
2022-12-09T23:56:05.247Z,96394.31
